Time;durP1;ratioP1;P1;durP2;ratioP2;P2;SDS_P1;SDS_P2;PMS_P1;PMS_P2;Temp;Humidity;BMP_temperature;BMP_pressure;BME280_temperature;BME280_humidity;BME280_pressure;Samples;Min_cycle;Max_cycle;Signal;HPM_P1;HPM_P2
2024/01/17 00:00:37;;;;;;;7.20;3.80;;;;;;;;;;5043527;28;20228;-74
2024/01/17 00:03:03;;;;;;;13.20;4.20;;;;;;;;;;5050461;28;20290;-74
2024/01/17 00:05:29;;;;;;;11.37;4.50;;;;;;;;;;5050577;28;20178;-74
2024/01/17 00:07:55;;;;;;;7.80;4.60;;;;;;;;;;5050694;28;20306;-74
2024/01/17 00:10:22;;;;;;;14.97;4.67;;;;;;;;;;5053418;28;20561;-74
2024/01/17 00:12:48;;;;;;;10.27;4.50;;;;;;;;;;5054509;28;20172;-75
2024/01/17 00:15:14;;;;;;;10.67;4.10;;;;;;;;;;5054346;28;20173;-74
2024/01/17 00:17:40;;;;;;;10.90;4.73;;;;;;;;;;5054119;28;20173;-74
2024/01/17 00:20:06;;;;;;;17.40;4.67;;;;;;;;;;5054478;28;20178;-74
2024/01/17 00:22:32;;;;;;;7.40;4.53;;;;;;;;;;5053803;28;20180;-74
2024/01/17 00:24:58;;;;;;;12.47;4.27;;;;;;;;;;5054114;28;20264;-74
2024/01/17 00:27:26;;;;;;;8.27;3.67;;;;;;;;;;5054088;28;20171;-74
2024/01/17 00:29:57;;;;;;;11.07;4.20;;;;;;;;;;5053852;28;20247;-74
2024/01/17 00:32:23;;;;;;;5.27;3.63;;;;;;;;;;5053402;28;20200;-74
2024/01/17 00:34:49;;;;;;;9.80;4.07;;;;;;;;;;5055605;28;20212;-74
2024/01/17 00:37:15;;;;;;;7.73;4.63;;;;;;;;;;5055080;28;20188;-74
2024/01/17 00:39:41;;;;;;;8.90;4.33;;;;;;;;;;5056950;28;20188;-74
2024/01/17 00:42:07;;;;;;;11.43;4.90;;;;;;;;;;5056749;28;20248;-74
2024/01/17 00:44:33;;;;;;;12.53;4.17;;;;;;;;;;5057227;28;20275;-74
2024/01/17 00:47:00;;;;;;;6.43;3.67;;;;;;;;;;5056190;28;20654;-74
2024/01/17 00:49:26;;;;;;;8.60;3.97;;;;;;;;;;5054314;28;20185;-74
2024/01/17 00:51:52;;;;;;;9.47;4.23;;;;;;;;;;5053765;28;20177;-74
2024/01/17 00:54:18;;;;;;;5.90;3.83;;;;;;;;;;5053936;28;20165;-74
2024/01/17 00:56:44;;;;;;;6.80;3.77;;;;;;;;;;5054721;28;20661;-74
2024/01/17 00:59:10;;;;;;;12.00;5.10;;;;;;;;;;5055734;28;20169;-73
2024/01/17 01:01:36;;;;;;;10.33;4.93;;;;;;;;;;5055590;28;20229;-74
2024/01/17 01:04:02;;;;;;;6.50;4.23;;;;;;;;;;5038185;28;20749;-74
2024/01/17 01:06:28;;;;;;;8.07;4.00;;;;;;;;;;5062865;28;20217;-74
2024/01/17 01:08:54;;;;;;;8.30;4.63;;;;;;;;;;5063458;28;20176;-73
2024/01/17 01:11:20;;;;;;;7.60;4.27;;;;;;;;;;5060857;28;20166;-74
2024/01/17 01:13:46;;;;;;;8.87;4.60;;;;;;;;;;5053932;28;20177;-74
2024/01/17 01:16:13;;;;;;;9.67;5.23;;;;;;;;;;5053779;28;20173;-74
2024/01/17 01:18:39;;;;;;;13.93;5.00;;;;;;;;;;5053699;28;20173;-74
2024/01/17 01:21:05;;;;;;;14.00;5.37;;;;;;;;;;5053118;28;20173;-74
2024/01/17 01:23:31;;;;;;;9.80;5.10;;;;;;;;;;5055682;28;20209;-74
2024/01/17 01:25:58;;;;;;;8.80;5.40;;;;;;;;;;5057904;28;20256;-74
2024/01/17 01:28:24;;;;;;;10.77;6.03;;;;;;;;;;5055249;28;20694;-73
2024/01/17 01:30:50;;;;;;;10.50;4.80;;;;;;;;;;5053467;28;20177;-74
2024/01/17 01:33:16;;;;;;;10.80;5.57;;;;;;;;;;5053422;28;20170;-74
2024/01/17 01:35:42;;;;;;;9.93;5.40;;;;;;;;;;5053429;28;20708;-74
2024/01/17 01:38:08;;;;;;;11.50;5.13;;;;;;;;;;5053440;28;20245;-74
2024/01/17 01:40:34;;;;;;;15.63;5.13;;;;;;;;;;5052971;28;20260;-73
2024/01/17 01:43:00;;;;;;;11.53;5.53;;;;;;;;;;5052979;28;20224;-74
2024/01/17 01:45:26;;;;;;;7.37;4.70;;;;;;;;;;5052950;28;20178;-74
2024/01/17 01:47:52;;;;;;;7.17;4.47;;;;;;;;;;5053068;28;20174;-73
2024/01/17 01:50:18;;;;;;;11.43;5.20;;;;;;;;;;5053222;28;20165;-74
2024/01/17 01:52:48;;;;;;;13.00;5.80;;;0.30;99.90;;;;;;5052670;28;20166;-74
2024/01/17 01:55:14;;;;;;;10.47;5.37;;;;;;;;;;5052853;28;20203;-74
2024/01/17 01:57:50;;;;;;;16.00;6.40;;;;;;;;;;5052264;28;20253;-75
2024/01/17 02:00:17;;;;;;;15.17;6.07;;;;;;;;;;5052521;28;20220;-73
2024/01/17 02:02:44;;;;;;;15.50;6.17;;;;;;;;;;5052953;28;20220;-74
2024/01/17 02:05:10;;;;;;;11.10;5.17;;;;;;;;;;5052901;28;20181;-73
2024/01/17 02:07:38;;;;;;;12.97;5.43;;;;;;;;;;5052706;28;20268;-73
2024/01/17 02:10:04;;;;;;;16.83;5.00;;;0.50;99.90;;;;;;5052517;28;20181;-74
2024/01/17 02:12:31;;;;;;;12.23;5.40;;;;;;;;;;5052353;28;20176;-73
2024/01/17 02:14:57;;;;;;;10.20;5.30;;;;;;;;;;5052346;28;20200;-73
2024/01/17 02:17:23;;;;;;;12.57;5.10;;;;;;;;;;5052602;28;20624;-73
2024/01/17 02:19:49;;;;;;;16.90;5.60;;;;;;;;;;5052644;28;20253;-73
2024/01/17 02:22:15;;;;;;;12.60;6.07;;;;;;;;;;5052430;28;20177;-73
2024/01/17 02:24:41;;;;;;;10.97;5.73;;;;;;;;;;5052461;28;20575;-73
2024/01/17 02:27:07;;;;;;;8.80;5.67;;;;;;;;;;5052361;28;20196;-73
2024/01/17 02:29:33;;;;;;;10.03;5.93;;;;;;;;;;5052978;28;20579;-73
2024/01/17 02:31:59;;;;;;;9.30;5.50;;;;;;;;;;5051878;28;20165;-74
2024/01/17 02:34:25;;;;;;;10.83;5.80;;;;;;;;;;5051427;28;20261;-74
2024/01/17 02:36:51;;;;;;;11.60;6.27;;;;;;;;;;5052242;28;20166;-74
2024/01/17 02:39:17;;;;;;;10.53;5.50;;;;;;;;;;5058157;28;20177;-73
2024/01/17 02:41:46;;;;;;;11.03;5.93;;;0.30;99.90;;;;;;5058104;28;20177;-74
2024/01/17 02:44:12;;;;;;;10.20;5.63;;;;;;;;;;5057451;28;20228;-73
2024/01/17 02:46:38;;;;;;;10.63;5.73;;;;;;;;;;5057502;28;20173;-74
2024/01/17 02:49:04;;;;;;;8.13;5.33;;;;;;;;;;5053048;28;20215;-74
2024/01/17 02:51:30;;;;;;;8.00;5.47;;;;;;;;;;5052186;28;20209;-74
2024/01/17 02:53:56;;;;;;;10.40;5.13;;;;;;;;;;5051810;28;20206;-73
2024/01/17 02:56:22;;;;;;;16.33;6.03;;;;;;;;;;5049066;28;20166;-74
2024/01/17 02:58:48;;;;;;;11.87;5.93;;;;;;;;;;5047894;28;20671;-73
2024/01/17 03:01:14;;;;;;;14.90;5.70;;;;;;;;;;5051213;28;20224;-74
2024/01/17 03:03:40;;;;;;;15.07;5.70;;;;;;;;;;5051097;28;20755;-73
2024/01/17 03:06:07;;;;;;;7.53;5.27;;;;;;;;;;5050707;28;20255;-73
2024/01/17 03:08:33;;;;;;;11.73;5.70;;;;;;;;;;5050428;28;20176;-73
2024/01/17 03:10:59;;;;;;;14.67;5.93;;;;;;;;;;5051141;28;20177;-73
2024/01/17 03:13:25;;;;;;;13.17;5.57;;;;;;;;;;5039310;28;20204;-73
2024/01/17 03:15:51;;;;;;;10.03;6.00;;;;;;;;;;5058309;28;20204;-73
2024/01/17 03:18:17;;;;;;;12.70;6.17;;;;;;;;;;5057450;28;20630;-73
2024/01/17 03:20:43;;;;;;;9.30;5.50;;;;;;;;;;5054639;28;20234;-74
2024/01/17 03:23:09;;;;;;;11.50;5.40;;;;;;;;;;5051557;28;20204;-74
2024/01/17 03:25:36;;;;;;;9.43;5.73;;;0.10;99.90;;;;;;5033560;28;20205;-74
2024/01/17 03:28:02;;;;;;;10.47;5.53;;;;;;;;;;5051512;28;20205;-74
2024/01/17 03:30:28;;;;;;;12.07;6.23;;;;;;;;;;5051251;28;20181;-74
2024/01/17 03:32:54;;;;;;;10.00;6.00;;;;;;;;;;5051116;28;20184;-74
2024/01/17 03:35:20;;;;;;;11.37;5.50;;;;;;;;;;5033713;28;20188;-74
2024/01/17 03:37:46;;;;;;;16.40;6.07;;;;;;;;;;5050978;28;20268;-74
2024/01/17 03:40:13;;;;;;;10.17;5.43;;;;;;;;;;5051073;28;20180;-74
2024/01/17 03:42:39;;;;;;;11.07;5.60;;;;;;;;;;5050940;28;20200;-74
2024/01/17 03:45:05;;;;;;;13.53;6.67;;;;;;;;;;5053249;28;20188;-74
2024/01/17 03:47:31;;;;;;;11.00;5.70;;;;;;;;;;5055818;28;20643;-74
2024/01/17 03:49:57;;;;;;;9.83;5.80;;;;;;;;;;5055351;28;20188;-74
2024/01/17 03:52:23;;;;;;;9.60;5.70;;;;;;;;;;5055056;28;20177;-74
2024/01/17 03:54:49;;;;;;;11.07;5.60;;;;;;;;;;5054946;28;20265;-74
2024/01/17 03:57:15;;;;;;;10.10;6.23;;;;;;;;;;5054939;28;20662;-74
2024/01/17 03:59:44;;;;;;;10.07;5.70;;;;;;;;;;5054898;28;20225;-74
2024/01/17 04:02:10;;;;;;;11.07;6.43;;;;;;;;;;5054475;28;20255;-73
2024/01/17 04:04:39;;;;;;;11.27;7.10;;;;;;;;;;5054192;28;20221;-74
2024/01/17 04:07:05;;;;;;;15.67;6.67;;;;;;;;;;5054353;28;20559;-73
2024/01/17 04:09:31;;;;;;;11.67;6.03;;;;;;;;;;5054403;28;20636;-74
2024/01/17 04:11:57;;;;;;;12.97;5.90;;;;;;;;;;5054514;28;20169;-74
2024/01/17 04:14:23;;;;;;;10.60;6.10;;;;;;;;;;5054429;28;20204;-74
2024/01/17 04:16:49;;;;;;;13.97;6.20;;;;;;;;;;5054442;28;20648;-74
2024/01/17 04:19:15;;;;;;;12.40;5.57;;;;;;;;;;5054629;28;20172;-73
2024/01/17 04:21:41;;;;;;;11.30;5.83;;;;;;;;;;5054221;28;20173;-73
2024/01/17 04:24:07;;;;;;;10.23;5.83;;;;;;;;;;5054998;28;20247;-73
2024/01/17 04:26:33;;;;;;;10.27;6.10;;;;;;;;;;5054494;28;20181;-74
2024/01/17 04:28:59;;;;;;;16.63;6.20;;;;;;;;;;5054179;28;20183;-74
2024/01/17 04:31:26;;;;;;;8.67;5.10;;;0.50;99.90;;;;;;5054101;28;20168;-73
2024/01/17 04:33:53;;;;;;;12.40;6.17;;;;;;;;;;5053939;28;20165;-73
2024/01/17 04:36:19;;;;;;;9.70;5.93;;;;;;;;;;5054205;28;20173;-73
2024/01/17 04:38:45;;;;;;;12.63;5.90;;;;;;;;;;5054075;28;20185;-73
2024/01/17 04:41:12;;;;;;;8.07;5.57;;;;;;;;;;5053560;28;20173;-73
2024/01/17 04:43:42;;;;;;;8.23;5.60;;;;;;;;;;5053385;28;20213;-74
2024/01/17 04:46:17;;;;;;;11.40;5.53;;;0.50;99.90;;;;;;5053787;28;20173;-74
2024/01/17 04:48:44;;;;;;;10.43;5.97;;;0.50;99.90;;;;;;5054114;28;20216;-74
2024/01/17 04:51:11;;;;;;;7.70;5.13;;;;;;;;;;5036450;28;20656;-74
2024/01/17 04:53:37;;;;;;;11.80;5.63;;;;;;;;;;5055124;28;20170;-74
2024/01/17 04:56:05;;;;;;;9.40;5.57;;;0.50;99.90;;;;;;5053897;28;20410;-74
2024/01/17 04:58:31;;;;;;;11.93;5.87;;;;;;;;;;5055033;28;20575;-74
2024/01/17 05:00:57;;;;;;;12.63;5.70;;;;;;;;;;5053762;28;20175;-74
2024/01/17 05:03:24;;;;;;;8.23;5.50;;;;;;;;;;5053739;28;20201;-74
2024/01/17 05:05:50;;;;;;;11.70;5.50;;;;;;;;;;5053647;28;20639;-74
2024/01/17 05:08:16;;;;;;;9.53;5.37;;;;;;;;;;5053558;28;20234;-74
2024/01/17 05:10:45;;;;;;;9.40;5.73;;;0.30;99.90;;;;;;5053692;28;20177;-74
2024/01/17 05:13:14;;;;;;;10.37;5.27;;;;;;;;;;5053869;28;20170;-74
2024/01/17 05:15:40;;;;;;;12.50;5.90;;;;;;;;;;5053862;28;20550;-75
2024/01/17 05:18:07;;;;;;;10.43;6.07;;;0.30;99.90;;;;;;5053530;28;20169;-74
2024/01/17 05:20:33;;;;;;;16.77;6.00;;;;;;;;;;5035976;28;20181;-75
2024/01/17 05:23:00;;;;;;;10.63;5.80;;;;;;;;;;5053475;28;20291;-75
2024/01/17 05:25:27;;;;;;;13.73;5.70;;;;;;;;;;5053332;28;20177;-74
2024/01/17 05:27:53;;;;;;;9.20;6.10;;;;;;;;;;5035446;28;20252;-74
2024/01/17 05:30:25;;;;;;;9.00;5.37;;;;;;;;;;5053153;28;20173;-75
2024/01/17 05:32:52;;;;;;;11.20;5.97;;;;;;;;;;5039783;28;20564;-74
2024/01/17 05:35:18;;;;;;;11.43;5.80;;;;;;;;;;5052783;28;20182;-74
2024/01/17 05:37:44;;;;;;;14.50;6.50;;;;;;;;;;5046444;28;20174;-73
2024/01/17 05:40:11;;;;;;;10.03;6.20;;;;;;;;;;5035638;28;20269;-74
2024/01/17 05:42:41;;;;;;;11.57;5.93;;;0.30;99.90;;;;;;5032995;28;20181;-74
2024/01/17 05:45:07;;;;;;;9.13;5.60;;;;;;;;;;5032968;28;20648;-74
2024/01/17 05:47:37;;;;;;;9.60;5.30;;;0.20;99.90;;;;;;5049047;28;20194;-74
2024/01/17 05:50:08;;;;;;;7.63;5.03;;;0.30;99.90;;;;;;5054595;28;20177;-74
2024/01/17 05:52:35;;;;;;;8.97;5.40;;;;;;;;;;5033921;28;20239;-74
2024/01/17 05:55:01;;;;;;;10.70;5.17;;;;;;;;;;5052442;28;20227;-74
2024/01/17 05:57:27;;;;;;;9.23;5.30;;;;;;;;;;5052305;28;20687;-74
2024/01/17 05:59:53;;;;;;;10.43;5.37;;;;;;;;;;5052569;28;20248;-74
2024/01/17 06:02:19;;;;;;;10.97;5.57;;;;;;;;;;5052001;28;20225;-74
2024/01/17 06:04:45;;;;;;;10.97;5.60;;;;;;;;;;5056637;28;20274;-74
2024/01/17 06:07:11;;;;;;;10.00;6.30;;;;;;;;;;5056967;28;20173;-74
2024/01/17 06:09:37;;;;;;;9.80;5.30;;;;;;;;;;5053304;28;20177;-74
2024/01/17 06:12:03;;;;;;;11.97;5.83;;;;;;;;;;5052386;28;20170;-74
2024/01/17 06:14:29;;;;;;;10.13;5.50;;;;;;;;;;5052493;28;20169;-73
2024/01/17 06:16:55;;;;;;;8.30;5.67;;;;;;;;;;5052419;28;20267;-75
2024/01/17 06:19:21;;;;;;;11.60;6.13;;;;;;;;;;5053085;28;20256;-74
2024/01/17 06:21:48;;;;;;;11.83;6.43;;;;;;;;;;5052596;28;20611;-73
2024/01/17 06:24:14;;;;;;;8.47;5.43;;;;;;;;;;5053414;28;20252;-74
2024/01/17 06:26:40;;;;;;;14.40;6.80;;;;;;;;;;5055403;28;20188;-73
2024/01/17 06:29:06;;;;;;;13.57;6.33;;;;;;;;;;5054344;28;20173;-73
2024/01/17 06:31:32;;;;;;;14.70;6.80;;;;;;;;;;5034592;28;20178;-73
2024/01/17 06:33:58;;;;;;;11.67;6.90;;;;;;;;;;5032380;28;20667;-74
2024/01/17 06:36:24;;;;;;;10.33;6.37;;;;;;;;;;5032300;28;20170;-73
2024/01/17 06:38:50;;;;;;;12.40;6.33;;;;;;;;;;5032213;28;20188;-73
2024/01/17 06:41:17;;;;;;;11.80;6.47;;;;;;;;;;5032241;28;20223;-73
2024/01/17 06:43:44;;;;;;;10.90;6.80;;;;;;;;;;5034650;28;20221;-73
2024/01/17 06:46:11;;;;;;;8.90;6.07;;;;;;;;;;5036081;28;20173;-73
2024/01/17 06:48:37;;;;;;;12.30;6.27;;;;;;;;;;5043222;28;20208;-73
2024/01/17 06:51:04;;;;;;;11.77;6.53;;;;;;;;;;5041376;28;20260;-73
2024/01/17 06:53:31;;;;;;;10.47;6.23;;;0.20;99.90;;;;;;5035381;28;20161;-73
2024/01/17 06:55:57;;;;;;;8.87;5.87;;;;;;;;;;5039955;28;20177;-73
2024/01/17 06:58:23;;;;;;;12.80;6.40;;;;;;;;;;5051972;28;20171;-73
2024/01/17 07:00:49;;;;;;;14.07;6.10;;;;;;;;;;5051677;28;20200;-73
2024/01/17 07:03:15;;;;;;;12.97;6.83;;;;;;;;;;5050906;28;20687;-73
2024/01/17 07:05:41;;;;;;;15.23;6.37;;;;;;;;;;5051505;28;20181;-74
2024/01/17 07:08:07;;;;;;;13.07;6.37;;;;;;;;;;5051429;28;20161;-74
2024/01/17 07:10:35;;;;;;;10.07;6.20;;;0.00;99.90;;;;;;5051628;28;20595;-73
2024/01/17 07:13:01;;;;;;;9.30;5.90;;;;;;;;;;5051731;28;20193;-73
2024/01/17 07:15:27;;;;;;;10.17;5.40;;;;;;;;;;5051877;28;20176;-73
2024/01/17 07:17:53;;;;;;;12.30;5.17;;;;;;;;;;5052608;28;20667;-73
2024/01/17 07:20:19;;;;;;;7.07;5.40;;;;;;;;;;5050862;28;20169;-73
2024/01/17 07:22:45;;;;;;;9.27;5.33;;;;;;;;;;5051277;28;20172;-73
2024/01/17 07:25:13;;;;;;;9.70;5.20;;;0.00;99.90;;;;;;5051422;28;20176;-73
2024/01/17 07:27:45;;;;;;;9.00;5.30;;;;;;;;;;5038637;28;20189;-73
2024/01/17 07:30:11;;;;;;;8.83;5.03;;;;;;;;;;5014019;28;20189;-73
2024/01/17 07:32:38;;;;;;;10.33;5.23;;;;;;;;;;5031557;28;20177;-74
2024/01/17 07:35:05;;;;;;;10.67;5.33;;;-0.20;99.90;;;;;;5031599;28;20181;-72
2024/01/17 07:37:31;;;;;;;8.50;4.73;;;;;;;;;;5031529;28;20303;-72
2024/01/17 07:39:57;;;;;;;14.37;5.10;;;;;;;;;;5031605;28;20188;-72
2024/01/17 07:42:23;;;;;;;10.00;5.63;;;;;;;;;;5031552;28;20917;-72
2024/01/17 07:44:49;;;;;;;9.40;5.30;;;;;;;;;;5045312;28;20698;-72
2024/01/17 07:47:16;;;;;;;12.53;6.27;;;;;;;;;;5051464;28;20264;-72
2024/01/17 07:49:42;;;;;;;8.57;6.10;;;;;;;;;;5051205;28;20181;-72
2024/01/17 07:52:08;;;;;;;9.23;5.50;;;;;;;;;;5050955;28;20173;-72
2024/01/17 07:54:35;;;;;;;9.67;5.67;;;;;;;;;;5050407;28;20666;-72
2024/01/17 07:57:01;;;;;;;8.10;5.90;;;;;;;;;;5050442;28;20227;-72
2024/01/17 07:59:30;;;;;;;12.47;5.87;;;;;;;;;;5051071;28;20186;-72
2024/01/17 08:01:56;;;;;;;9.33;5.63;;;;;;;;;;5050969;28;20217;-72
2024/01/17 08:04:23;;;;;;;8.43;5.53;;;;;;;;;;5051537;28;20274;-72
2024/01/17 08:06:49;;;;;;;14.87;5.90;;;;;;;;;;5052733;28;20169;-72
2024/01/17 08:09:21;;;;;;;11.37;6.27;;;;;;;;;;5033066;28;20540;-72
2024/01/17 08:11:51;;;;;;;10.83;5.80;;;0.40;99.90;;;;;;5051133;28;20181;-73
2024/01/17 08:14:18;;;;;;;13.63;5.97;;;;;;;;;;5051239;28;20178;-73
2024/01/17 08:16:44;;;;;;;6.90;5.37;;;;;;;;;;5050936;28;20173;-73
2024/01/17 08:19:11;;;;;;;11.13;6.13;;;;;;;;;;5051230;28;20300;-73
2024/01/17 08:21:37;;;;;;;10.57;5.73;;;;;;;;;;5050653;28;20197;-73
2024/01/17 08:24:03;;;;;;;10.83;5.87;;;;;;;;;;5050177;28;20224;-72
2024/01/17 08:26:29;;;;;;;15.97;5.77;;;;;;;;;;5051703;28;20201;-72
2024/01/17 08:28:56;;;;;;;7.10;5.33;;;;;;;;;;5051034;28;20181;-72
2024/01/17 08:31:22;;;;;;;8.43;5.37;;;;;;;;;;5052337;28;20235;-73
2024/01/17 08:33:49;;;;;;;8.33;5.10;;;;;;;;;;5054566;28;20717;-73
2024/01/17 08:36:16;;;;;;;9.57;5.00;;;;;;;;;;5054688;28;20177;-73
2024/01/17 08:38:42;;;;;;;10.13;5.40;;;;;;;;;;5054665;28;20204;-72
2024/01/17 08:41:08;;;;;;;9.93;5.67;;;;;;;;;;5054411;28;20177;-72
2024/01/17 08:43:35;;;;;;;13.13;5.80;;;;;;;;;;5051268;28;20205;-72
2024/01/17 08:46:01;;;;;;;9.13;5.37;;;;;;;;;;5044923;28;20231;-73
2024/01/17 08:48:27;;;;;;;8.50;5.50;;;;;;;;;;5054639;28;20173;-72
2024/01/17 08:50:53;;;;;;;9.40;5.37;;;;;;;;;;5037666;28;20660;-73
2024/01/17 08:53:19;;;;;;;7.97;4.90;;;;;;;;;;5038652;28;20182;-73
2024/01/17 08:55:46;;;;;;;11.30;6.03;;;;;;;;;;5049578;28;20263;-73
2024/01/17 08:58:12;;;;;;;9.50;5.80;;;;;;;;;;5035999;28;20174;-73
2024/01/17 09:00:38;;;;;;;7.60;5.57;;;;;;;;;;5053703;28;20169;-73
2024/01/17 09:03:05;;;;;;;13.47;5.93;;;;;;;;;;5052770;28;20224;-73
2024/01/17 09:05:31;;;;;;;15.50;5.73;;;;;;;;;;5050276;28;20644;-73
2024/01/17 09:07:58;;;;;;;10.20;5.57;;;;;;;;;;5055084;28;20177;-72
2024/01/17 09:10:24;;;;;;;11.70;5.57;;;;;;;;;;5061188;28;20613;-73
2024/01/17 09:12:50;;;;;;;12.70;5.90;;;1.20;99.90;;;;;;5058648;28;20173;-73
2024/01/17 09:15:16;;;;;;;14.87;6.50;;;;;;;;;;5056511;28;20176;-72
2024/01/17 09:17:42;;;;;;;13.60;6.97;;;;;;;;;;5055895;28;20249;-73
2024/01/17 09:20:09;;;;;;;11.43;6.67;;;;;;;;;;5054643;28;20178;-73
2024/01/17 09:22:35;;;;;;;11.10;6.53;;;;;;;;;;5054264;28;20242;-73
2024/01/17 09:25:01;;;;;;;12.50;5.80;;;;;;;;;;5053261;28;20216;-73
2024/01/17 09:27:30;;;;;;;10.67;5.70;;;1.70;99.90;;;;;;5053593;28;20170;-72
2024/01/17 09:29:56;;;;;;;9.97;5.57;;;;;;;;;;5053087;28;20185;-73
2024/01/17 09:32:22;;;;;;;12.33;5.80;;;;;;;;;;5052091;28;20685;-72
2024/01/17 09:34:48;;;;;;;8.40;5.10;;;;;;;;;;5052970;28;20180;-74
2024/01/17 09:37:15;;;;;;;10.93;5.40;;;;;;;;;;5053179;28;20226;-73
2024/01/17 09:39:41;;;;;;;13.17;5.50;;;;;;;;;;5052309;28;20192;-73
2024/01/17 09:42:07;;;;;;;6.83;5.07;;;;;;;;;;5051170;28;20177;-72
2024/01/17 09:44:34;;;;;;;14.60;5.60;;;;;;;;;;5053088;28;20244;-72
2024/01/17 09:47:01;;;;;;;12.00;5.27;;;;;;;;;;5052771;28;20165;-72
2024/01/17 09:49:27;;;;;;;8.10;4.90;;;;;;;;;;5032968;28;20212;-72
2024/01/17 09:51:54;;;;;;;12.17;4.37;;;;;;;;;;5015585;28;20188;-72
2024/01/17 09:54:26;;;;;;;8.33;4.00;;;;;;;;;;5044644;28;20180;-72
2024/01/17 09:56:55;;;;;;;12.20;3.67;;;2.50;99.90;;;;;;5052703;28;20177;-73
2024/01/17 09:59:27;;;;;;;8.30;3.70;;;2.40;99.90;;;;;;5052630;28;20173;-72
2024/01/17 10:01:54;;;;;;;7.70;3.33;;;;;;;;;;5051746;28;20296;-72
2024/01/17 10:04:20;;;;;;;13.00;3.60;;;;;;;;;;5052101;28;20209;-71
2024/01/17 10:06:48;;;;;;;10.30;3.57;;;;;;;;;;5051981;28;20648;-72
2024/01/17 10:09:15;;;;;;;12.30;3.80;;;3.00;99.90;;;;;;5051744;28;20177;-73
2024/01/17 10:11:41;;;;;;;7.53;3.13;;;;;;;;;;5034360;28;20177;-73
2024/01/17 10:14:07;;;;;;;7.73;4.10;;;;;;;;;;5052155;28;20708;-72
2024/01/17 10:16:34;;;;;;;8.93;3.93;;;;;;;;;;5052476;28;20161;-73
2024/01/17 10:19:04;;;;;;;6.60;3.70;;;2.90;99.90;;;;;;5052306;28;20177;-72
2024/01/17 10:21:35;;;;;;;7.73;4.10;;;3.00;99.90;;;;;;5048058;28;20184;-72
2024/01/17 10:24:02;;;;;;;16.80;4.73;;;;;;;;;;5052007;28;20205;-71
2024/01/17 10:26:28;;;;;;;7.57;4.07;;;;;;;;;;5052348;28;20227;-72
2024/01/17 10:28:54;;;;;;;7.73;4.43;;;;;;;;;;5046391;28;20181;-72
2024/01/17 10:31:24;;;;;;;9.07;4.30;;;;;;;;;;5027493;28;20589;-73
2024/01/17 10:33:53;;;;;;;11.53;4.97;;;3.10;99.90;;;;;;5051863;28;20176;-72
2024/01/17 10:36:20;;;;;;;9.07;4.77;;;;;;;;;;5051017;28;20235;-72
2024/01/17 10:38:47;;;;;;;11.40;5.37;;;;;;;;;;5032494;28;20197;-72
2024/01/17 10:41:13;;;;;;;8.77;4.83;;;3.50;99.90;;;;;;5051468;28;20235;-72
2024/01/17 10:43:53;;;;;;;8.27;4.60;;;3.40;99.90;;;;;;5051939;28;20231;-73
2024/01/17 10:46:20;;;;;;;7.77;5.17;;;;;;;;;;5035576;28;20165;-72
2024/01/17 10:48:46;;;;;;;16.40;5.67;;;;;;;;;;5051028;28;20173;-72
2024/01/17 10:51:20;;;;;;;12.33;5.20;;;3.60;99.90;;;;;;5051295;28;20212;-72
2024/01/17 10:53:48;;;;;;;13.80;6.50;;;3.50;99.90;;;;;;5051151;28;20233;-73
2024/01/17 10:56:18;;;;;;;15.13;5.97;;;3.60;99.90;;;;;;5051478;28;20182;-72
2024/01/17 10:58:46;;;;;;;19.23;6.50;;;;;;;;;;5051203;28;20173;-72
2024/01/17 11:01:14;;;;;;;16.47;5.77;;;3.60;99.90;;;;;;5050966;28;20177;-72
2024/01/17 11:03:43;;;;;;;12.07;5.93;;;;;;;;;;5051471;28;20205;-73
2024/01/17 11:06:10;;;;;;;10.63;5.27;;;;;;;;;;5041929;28;20178;-74
2024/01/17 11:08:37;;;;;;;14.70;6.17;;;3.50;99.90;;;;;;5051439;28;20220;-73
2024/01/17 11:11:05;;;;;;;9.17;5.37;;;3.40;99.90;;;;;;5056033;28;20181;-72
2024/01/17 11:13:32;;;;;;;12.53;6.30;;;;;;;;;;5059815;28;20183;-75
2024/01/17 11:15:59;;;;;;;10.20;5.50;;;;;;;;;;5058987;28;20165;-72
2024/01/17 11:18:26;;;;;;;12.47;5.50;;;;;;;;;;5057215;28;20161;-72
2024/01/17 11:20:53;;;;;;;14.07;6.20;;;;;;;;;;5051167;28;20238;-72
2024/01/17 11:23:28;;;;;;;18.53;6.80;;;;;;;;;;5051244;28;20251;-72
2024/01/17 11:26:00;;;;;;;11.30;5.90;;;3.40;99.90;;;;;;5038709;28;20185;-72
2024/01/17 11:28:36;;;;;;;17.03;6.67;;;3.60;99.90;;;;;;5050575;28;20174;-72
2024/01/17 11:31:02;;;;;;;11.73;5.80;;;;;;;;;;5050939;28;20647;-72
2024/01/17 11:33:30;;;;;;;10.93;5.97;;;;;;;;;;5051263;28;20169;-72
2024/01/17 11:35:56;;;;;;;10.70;6.23;;;;;;;;;;5051138;28;20184;-73
2024/01/17 11:38:25;;;;;;;17.57;6.87;;;;;;;;;;5050841;28;20244;-73
2024/01/17 11:40:51;;;;;;;17.03;6.50;;;;;;;;;;5051330;28;20181;-73
2024/01/17 11:43:18;;;;;;;10.80;6.50;;;;;;;;;;5050669;28;20205;-73
2024/01/17 11:45:44;;;;;;;13.90;6.43;;;;;;;;;;5050112;28;20265;-73
2024/01/17 11:48:29;;;;;;;14.37;6.93;;;3.40;99.90;;;;;;5050858;28;20170;-74
2024/01/17 11:51:16;;;;;;;15.47;6.23;;;;;;;;;;5050781;28;20188;-73
2024/01/17 11:53:46;;;;;;;18.83;7.07;;;3.60;99.90;;;;;;5052010;28;20212;-73
2024/01/17 11:56:13;;;;;;;13.87;7.97;;;;;;;;;;5051550;28;20849;-73
2024/01/17 11:59:05;;;;;;;13.97;7.53;;;3.60;99.90;;;;;;5050967;28;20195;-73
2024/01/17 12:01:37;;;;;;;13.17;7.50;;;;;;;;;;5031049;28;20737;-73
2024/01/17 12:04:16;;;;;;;14.30;7.37;;;3.60;99.90;;;;;;5031140;28;20856;-73
2024/01/17 12:06:43;;;;;;;17.97;8.00;;;;;;;;;;5033238;28;20540;-74
2024/01/17 12:09:15;;;;;;;19.47;8.23;;;3.70;99.90;;;;;;5053870;28;20178;-74
2024/01/17 12:11:42;;;;;;;13.80;8.33;;;;;;;;;;5054508;28;20185;-74
2024/01/17 12:14:08;;;;;;;16.37;7.60;;;;;;;;;;5054568;28;20197;-72
2024/01/17 12:16:34;;;;;;;15.23;8.17;;;;;;;;;;5055124;28;20185;-74
2024/01/17 12:19:01;;;;;;;12.07;8.20;;;;;;;;;;5044352;28;20221;-73
2024/01/17 12:21:27;;;;;;;15.97;7.50;;;;;;;;;;5042990;28;20226;-74
2024/01/17 12:23:53;;;;;;;16.23;8.63;;;;;;;;;;5050253;28;20212;-73
2024/01/17 12:26:19;;;;;;;14.27;8.07;;;;;;;;;;5054769;28;20177;-73
2024/01/17 12:28:46;;;;;;;12.33;7.57;;;;;;;;;;5054692;28;20628;-73
2024/01/17 12:31:12;;;;;;;18.77;7.90;;;;;;;;;;5055627;28;20664;-73
2024/01/17 12:33:38;;;;;;;17.90;9.93;;;4.70;99.90;;;;;;5054531;28;20170;-73
2024/01/17 12:36:06;;;;;;;16.50;8.27;;;4.80;99.90;;;;;;5053950;28;20223;-74
2024/01/17 12:38:33;;;;;;;14.40;8.40;;;;;;;;;;5053015;28;20169;-72
2024/01/17 12:41:00;;;;;;;16.17;8.57;;;;;;;;;;5050971;28;20166;-73
2024/01/17 12:43:28;;;;;;;15.57;7.40;;;;;;;;;;5047318;28;20239;-73
2024/01/17 12:45:55;;;;;;;18.80;8.73;;;;;;;;;;5031538;28;20174;-73
2024/01/17 12:48:21;;;;;;;15.13;7.90;;;;;;;;;;5032261;28;20393;-72
2024/01/17 12:50:57;;;;;;;17.27;8.23;;;;;;;;;;5034849;28;20654;-72
2024/01/17 12:53:25;;;;;;;14.87;8.53;;;5.30;99.90;;;;;;5042400;28;20185;-72
2024/01/17 12:55:51;;;;;;;13.30;7.57;;;;;;;;;;5016025;28;20265;-72
2024/01/17 12:58:18;;;;;;;12.90;7.17;;;;;;;;;;5033692;28;20173;-72
2024/01/17 13:00:44;;;;;;;13.30;7.83;;;;;;;;;;5016090;28;20294;-72
2024/01/17 13:03:11;;;;;;;16.17;8.03;;;6.10;99.90;;;;;;5048560;28;20707;-72
2024/01/17 13:05:40;;;;;;;12.53;7.97;;;;;;;;;;5052607;28;20189;-71
2024/01/17 13:08:06;;;;;;;14.07;7.87;;;;;;;;;;5053136;28;20193;-71
2024/01/17 13:10:35;;;;;;;14.73;8.20;;;5.70;99.90;;;;;;5052994;28;20181;-74
2024/01/17 13:13:02;;;;;;;16.97;7.80;;;;;;;;;;5052952;28;20398;-73
2024/01/17 13:15:28;;;;;;;12.20;7.30;;;;;;;;;;5051419;28;20410;-73
2024/01/17 13:17:54;;;;;;;18.37;8.33;;;;;;;;;;5050517;28;20636;-74
2024/01/17 13:20:21;;;;;;;13.63;8.07;;;;;;;;;;5052378;28;20205;-72
2024/01/17 13:22:50;;;;;;;14.27;8.10;;;6.00;99.90;;;;;;5039249;28;20200;-70
2024/01/17 13:25:20;;;;;;;14.30;8.03;;;;;;;;;;5046091;28;20223;-73
2024/01/17 13:27:46;;;;;;;13.57;8.10;;;;;;;;;;5047321;28;20702;-71
2024/01/17 13:30:13;;;;;;;21.57;9.37;;;;;;;;;;5033328;28;20633;-73
2024/01/17 13:32:39;;;;;;;23.43;10.90;;;;;;;;;;5047172;28;20185;-73
2024/01/17 13:35:05;;;;;;;18.77;9.50;;;;;;;;;;5034933;28;20723;-72
2024/01/17 13:37:31;;;;;;;16.23;8.37;;;;;;;;;;5052762;28;20250;-70
2024/01/17 13:39:57;;;;;;;36.27;15.70;;;;;;;;;;5050473;28;20244;-73
2024/01/17 13:42:23;;;;;;;21.13;9.87;;;;;;;;;;5052447;28;20664;-73
2024/01/17 13:44:50;;;;;;;12.60;7.60;;;;;;;;;;5049893;28;20292;-70
2024/01/17 13:47:16;;;;;;;27.40;9.40;;;;;;;;;;5047843;28;20222;-72
2024/01/17 13:49:44;;;;;;;20.93;8.33;;;;;;;;;;5050730;28;20208;-71
2024/01/17 13:52:14;;;;;;;15.67;8.73;;;;;;;;;;5051886;28;20575;-72
2024/01/17 13:54:40;;;;;;;17.67;9.67;;;;;;;;;;5051573;28;20170;-71
2024/01/17 13:57:06;;;;;;;22.03;11.77;;;;;;;;;;5051857;28;20252;-71
2024/01/17 13:59:32;;;;;;;18.03;8.60;;;;;;;;;;5051377;28;20174;-71
2024/01/17 14:02:01;;;;;;;20.17;10.37;;;;;;;;;;5052071;28;20221;-72
2024/01/17 14:04:27;;;;;;;16.70;9.07;;;;;;;;;;5052865;28;20217;-73
2024/01/17 14:06:53;;;;;;;17.83;10.17;;;;;;;;;;5051292;28;20181;-72
2024/01/17 14:09:23;;;;;;;20.73;11.00;;;;;;;;;;5052157;28;20694;-72
2024/01/17 14:11:50;;;;;;;18.13;10.63;;;;;;;;;;5033698;28;20594;-72
2024/01/17 14:14:16;;;;;;;21.23;10.27;;;;;;;;;;5052034;28;20165;-73
2024/01/17 14:16:42;;;;;;;21.07;10.37;;;;;;;;;;5051170;28;20632;-73